Richeyville, Pennsylvania
Current Conditions -  °F | °C
As of 4:35 PM on Wednesday 17 Dec 2014 (Local Time) from KAFJ Reporting Station
Overcast Overcast  
Wind Chill: 21°   Ceiling: 2400
Heat Index: 30°   Visibility: 10mi
Dew Point: 23°   Wind: 12mph
Humidity: 75%   Direction: 260°W
Pressure: 30.1"   Gusts: NA
Location:  40.05°N, 80°W
Report Text: KAFJ 172135Z AUTO 26010KT 10SM OVC024 M01/M05 A3010 RMK AO1
Loading
Personal Weather Stations






























Interactive Weather Map New forecast layout! Learn more

10-Day Weather Forecast

Advertisements
Track Severe Weather on mobile